sensor_id;sensor_type;location;lat;lon;timestamp;pressure;altitude;pressure_sealevel;temperature;humidity
69351;BME280;57106;51.446;-2.606;2023-05-19T00:00:27;102688.10;;;15.58;67.07
69351;BME280;57106;51.446;-2.606;2023-05-19T00:05:11;102688.31;;;15.57;66.94
69351;BME280;57106;51.446;-2.606;2023-05-19T00:07:37;102683.54;;;15.54;67.10
69351;BME280;57106;51.446;-2.606;2023-05-19T00:14:53;102690.17;;;15.32;67.90
69351;BME280;57106;51.446;-2.606;2023-05-19T00:17:16;102691.04;;;15.29;68.08
69351;BME280;57106;51.446;-2.606;2023-05-19T00:19:41;102687.47;;;15.15;68.64
69351;BME280;57106;51.446;-2.606;2023-05-19T00:22:07;102690.47;;;15.09;68.70
69351;BME280;57106;51.446;-2.606;2023-05-19T00:24:32;102691.47;;;15.09;68.93
69351;BME280;57106;51.446;-2.606;2023-05-19T00:27:01;102693.53;;;14.99;69.11
69351;BME280;57106;51.446;-2.606;2023-05-19T00:29:23;102695.66;;;15.09;69.24
69351;BME280;57106;51.446;-2.606;2023-05-19T00:31:48;102697.47;;;15.22;68.89
69351;BME280;57106;51.446;-2.606;2023-05-19T00:34:14;102696.65;;;15.30;68.60
69351;BME280;57106;51.446;-2.606;2023-05-19T00:36:40;102696.16;;;15.21;68.57
69351;BME280;57106;51.446;-2.606;2023-05-19T00:39:05;102691.07;;;15.12;69.10
69351;BME280;57106;51.446;-2.606;2023-05-19T00:41:31;102690.00;;;15.10;69.30
69351;BME280;57106;51.446;-2.606;2023-05-19T00:43:56;102687.42;;;15.17;69.06
69351;BME280;57106;51.446;-2.606;2023-05-19T00:46:22;102686.47;;;15.20;68.92
69351;BME280;57106;51.446;-2.606;2023-05-19T00:48:47;102685.05;;;15.26;68.41
69351;BME280;57106;51.446;-2.606;2023-05-19T00:51:13;102683.99;;;15.11;68.83
69351;BME280;57106;51.446;-2.606;2023-05-19T00:53:38;102682.88;;;15.27;68.37
69351;BME280;57106;51.446;-2.606;2023-05-19T01:05:45;102678.46;;;15.35;67.99
69351;BME280;57106;51.446;-2.606;2023-05-19T01:08:11;102680.39;;;15.22;68.35
69351;BME280;57106;51.446;-2.606;2023-05-19T01:10:37;102681.41;;;15.22;68.33
69351;BME280;57106;51.446;-2.606;2023-05-19T01:13:02;102685.86;;;15.21;68.54
69351;BME280;57106;51.446;-2.606;2023-05-19T01:15:28;102688.34;;;15.17;68.75
69351;BME280;57106;51.446;-2.606;2023-05-19T01:17:57;102696.44;;;15.20;68.71
69351;BME280;57106;51.446;-2.606;2023-05-19T01:20:22;102703.90;;;15.42;67.93
69351;BME280;57106;51.446;-2.606;2023-05-19T01:23:00;102704.57;;;15.36;68.04
69351;BME280;57106;51.446;-2.606;2023-05-19T01:27:47;102697.72;;;15.33;68.01
69351;BME280;57106;51.446;-2.606;2023-05-19T01:30:19;102690.51;;;15.16;68.93
69351;BME280;57106;51.446;-2.606;2023-05-19T01:32:25;102689.44;;;15.17;68.86
69351;BME280;57106;51.446;-2.606;2023-05-19T01:34:51;102687.31;;;15.14;68.58
69351;BME280;57106;51.446;-2.606;2023-05-19T01:37:16;102687.15;;;15.25;68.66
69351;BME280;57106;51.446;-2.606;2023-05-19T01:39:41;102692.86;;;15.34;68.04
69351;BME280;57106;51.446;-2.606;2023-05-19T01:42:07;102694.03;;;15.19;68.28
69351;BME280;57106;51.446;-2.606;2023-05-19T01:44:36;102694.01;;;15.18;68.20
69351;BME280;57106;51.446;-2.606;2023-05-19T01:46:58;102686.70;;;15.25;68.14
69351;BME280;57106;51.446;-2.606;2023-05-19T01:49:23;102680.56;;;15.09;68.66
69351;BME280;57106;51.446;-2.606;2023-05-19T01:54:14;102682.59;;;15.21;68.05
69351;BME280;57106;51.446;-2.606;2023-05-19T01:56:45;102680.90;;;15.10;68.22
69351;BME280;57106;51.446;-2.606;2023-05-19T01:59:15;102676.40;;;15.12;68.01
69351;BME280;57106;51.446;-2.606;2023-05-19T02:01:36;102666.55;;;15.17;68.10
69351;BME280;57106;51.446;-2.606;2023-05-19T02:04:09;102665.89;;;15.04;68.20
69351;BME280;57106;51.446;-2.606;2023-05-19T02:06:28;102670.02;;;15.08;68.00
69351;BME280;57106;51.446;-2.606;2023-05-19T02:08:55;102668.34;;;14.95;67.89
69351;BME280;57106;51.446;-2.606;2023-05-19T02:11:21;102662.30;;;14.92;68.31
69351;BME280;57106;51.446;-2.606;2023-05-19T02:13:42;102665.92;;;14.93;68.22
69351;BME280;57106;51.446;-2.606;2023-05-19T02:16:05;102661.98;;;14.90;68.24
69351;BME280;57106;51.446;-2.606;2023-05-19T02:18:31;102658.28;;;14.87;68.31
69351;BME280;57106;51.446;-2.606;2023-05-19T02:20:55;102659.79;;;14.87;68.10
69351;BME280;57106;51.446;-2.606;2023-05-19T02:23:20;102656.59;;;14.88;68.20
69351;BME280;57106;51.446;-2.606;2023-05-19T02:25:46;102656.96;;;14.76;68.62
69351;BME280;57106;51.446;-2.606;2023-05-19T02:28:11;102662.33;;;14.88;68.06
69351;BME280;57106;51.446;-2.606;2023-05-19T02:30:37;102661.72;;;14.80;67.96
69351;BME280;57106;51.446;-2.606;2023-05-19T02:33:02;102662.46;;;14.74;68.25
69351;BME280;57106;51.446;-2.606;2023-05-19T02:35:27;102664.82;;;14.71;68.42
69351;BME280;57106;51.446;-2.606;2023-05-19T02:37:53;102669.52;;;14.60;68.75
69351;BME280;57106;51.446;-2.606;2023-05-19T02:40:19;102670.69;;;14.62;68.59
69351;BME280;57106;51.446;-2.606;2023-05-19T02:42:44;102670.27;;;14.54;69.05
69351;BME280;57106;51.446;-2.606;2023-05-19T02:45:11;102669.62;;;14.48;69.44
69351;BME280;57106;51.446;-2.606;2023-05-19T02:47:35;102673.38;;;14.50;69.32
69351;BME280;57106;51.446;-2.606;2023-05-19T02:50:01;102675.38;;;14.58;68.93
69351;BME280;57106;51.446;-2.606;2023-05-19T02:52:26;102671.54;;;14.51;69.06
69351;BME280;57106;51.446;-2.606;2023-05-19T02:54:51;102669.42;;;14.49;68.99
69351;BME280;57106;51.446;-2.606;2023-05-19T02:57:17;102670.13;;;14.51;68.96
69351;BME280;57106;51.446;-2.606;2023-05-19T02:59:43;102672.85;;;14.24;69.25
69351;BME280;57106;51.446;-2.606;2023-05-19T03:02:08;102671.15;;;14.32;69.02
69351;BME280;57106;51.446;-2.606;2023-05-19T03:04:34;102667.24;;;14.43;68.84
69351;BME280;57106;51.446;-2.606;2023-05-19T03:06:59;102668.78;;;14.15;69.36
69351;BME280;57106;51.446;-2.606;2023-05-19T03:09:25;102676.69;;;13.89;70.20
69351;BME280;57106;51.446;-2.606;2023-05-19T03:11:50;102679.97;;;13.94;70.39
69351;BME280;57106;51.446;-2.606;2023-05-19T03:14:16;102677.25;;;13.92;70.43
69351;BME280;57106;51.446;-2.606;2023-05-19T03:16:41;102672.97;;;13.90;70.48
69351;BME280;57106;51.446;-2.606;2023-05-19T03:19:07;102667.36;;;13.85;70.57
69351;BME280;57106;51.446;-2.606;2023-05-19T03:21:32;102661.24;;;13.97;70.38
69351;BME280;57106;51.446;-2.606;2023-05-19T03:23:58;102665.25;;;14.02;69.79
69351;BME280;57106;51.446;-2.606;2023-05-19T03:26:23;102665.21;;;14.09;69.24
69351;BME280;57106;51.446;-2.606;2023-05-19T03:28:49;102667.69;;;13.96;69.47
69351;BME280;57106;51.446;-2.606;2023-05-19T03:31:14;102666.81;;;13.95;69.55
69351;BME280;57106;51.446;-2.606;2023-05-19T03:33:40;102664.96;;;13.89;69.72
69351;BME280;57106;51.446;-2.606;2023-05-19T03:36:06;102664.33;;;13.94;69.45
69351;BME280;57106;51.446;-2.606;2023-05-19T03:38:31;102663.01;;;14.13;68.66
69351;BME280;57106;51.446;-2.606;2023-05-19T03:40:56;102660.34;;;14.07;68.78
69351;BME280;57106;51.446;-2.606;2023-05-19T03:43:22;102659.90;;;13.93;69.56
69351;BME280;57106;51.446;-2.606;2023-05-19T03:45:47;102665.65;;;13.97;68.77
69351;BME280;57106;51.446;-2.606;2023-05-19T03:48:13;102673.49;;;13.98;68.86
69351;BME280;57106;51.446;-2.606;2023-05-19T03:50:39;102671.42;;;13.96;69.20
69351;BME280;57106;51.446;-2.606;2023-05-19T03:53:04;102662.16;;;13.91;68.86
69351;BME280;57106;51.446;-2.606;2023-05-19T03:55:30;102658.70;;;13.98;68.91
69351;BME280;57106;51.446;-2.606;2023-05-19T03:57:55;102665.90;;;14.06;68.05
69351;BME280;57106;51.446;-2.606;2023-05-19T04:00:21;102666.80;;;14.08;68.45
69351;BME280;57106;51.446;-2.606;2023-05-19T04:02:46;102665.69;;;14.03;68.49
69351;BME280;57106;51.446;-2.606;2023-05-19T04:05:13;102666.78;;;14.05;68.52
69351;BME280;57106;51.446;-2.606;2023-05-19T04:07:37;102671.67;;;14.03;68.36
69351;BME280;57106;51.446;-2.606;2023-05-19T04:10:04;102672.77;;;14.08;68.39
69351;BME280;57106;51.446;-2.606;2023-05-19T04:12:28;102675.65;;;13.91;68.75
69351;BME280;57106;51.446;-2.606;2023-05-19T04:14:54;102684.34;;;13.91;68.71
69351;BME280;57106;51.446;-2.606;2023-05-19T04:17:19;102688.94;;;13.88;68.96
69351;BME280;57106;51.446;-2.606;2023-05-19T04:19:45;102692.07;;;13.94;68.29
69351;BME280;57106;51.446;-2.606;2023-05-19T04:22:10;102692.35;;;13.79;69.07
69351;BME280;57106;51.446;-2.606;2023-05-19T04:24:36;102696.93;;;13.78;69.02
69351;BME280;57106;51.446;-2.606;2023-05-19T04:27:03;102703.89;;;13.71;69.14
69351;BME280;57106;51.446;-2.606;2023-05-19T04:29:27;102706.15;;;13.64;69.76
69351;BME280;57106;51.446;-2.606;2023-05-19T04:31:53;102709.09;;;13.81;68.98
69351;BME280;57106;51.446;-2.606;2023-05-19T04:34:20;102712.24;;;13.74;69.30
69351;BME280;57106;51.446;-2.606;2023-05-19T04:36:44;102719.48;;;13.61;69.31
69351;BME280;57106;51.446;-2.606;2023-05-19T04:39:09;102721.37;;;13.66;69.53
69351;BME280;57106;51.446;-2.606;2023-05-19T04:41:36;102722.82;;;13.63;69.37
69351;BME280;57106;51.446;-2.606;2023-05-19T04:44:00;102725.86;;;13.71;69.04
69351;BME280;57106;51.446;-2.606;2023-05-19T04:46:26;102724.90;;;13.76;68.54
69351;BME280;57106;51.446;-2.606;2023-05-19T04:48:51;102725.65;;;13.80;68.25
69351;BME280;57106;51.446;-2.606;2023-05-19T04:51:19;102723.69;;;13.79;68.67
69351;BME280;57106;51.446;-2.606;2023-05-19T05:25:15;102673.31;;;13.95;67.91
69351;BME280;57106;51.446;-2.606;2023-05-19T05:27:39;102660.54;;;14.15;66.99
69351;BME280;57106;51.446;-2.606;2023-05-19T05:30:06;102655.92;;;14.53;65.53
69351;BME280;57106;51.446;-2.606;2023-05-19T05:32:30;102649.53;;;15.08;64.03
69351;BME280;57106;51.446;-2.606;2023-05-19T05:34:55;102646.39;;;15.22;62.95
69351;BME280;57106;51.446;-2.606;2023-05-19T05:37:26;102647.88;;;15.48;62.11
69351;BME280;57106;51.446;-2.606;2023-05-19T05:39:46;102649.83;;;15.60;61.99
69351;BME280;57106;51.446;-2.606;2023-05-19T05:42:12;102653.07;;;15.78;61.06
69351;BME280;57106;51.446;-2.606;2023-05-19T05:44:42;102656.08;;;15.86;60.98
69351;BME280;57106;51.446;-2.606;2023-05-19T05:47:03;102661.15;;;16.04;60.18
69351;BME280;57106;51.446;-2.606;2023-05-19T05:49:29;102661.93;;;16.03;59.76
69351;BME280;57106;51.446;-2.606;2023-05-19T05:51:55;102665.20;;;15.93;60.07
69351;BME280;57106;51.446;-2.606;2023-05-19T05:54:21;102670.93;;;15.83;60.26
69351;BME280;57106;51.446;-2.606;2023-05-19T05:56:45;102674.16;;;15.98;60.57
69351;BME280;57106;51.446;-2.606;2023-05-19T05:59:10;102677.67;;;16.06;60.21
69351;BME280;57106;51.446;-2.606;2023-05-19T06:01:36;102679.31;;;16.03;60.39
69351;BME280;57106;51.446;-2.606;2023-05-19T06:04:01;102678.60;;;16.02;60.52
69351;BME280;57106;51.446;-2.606;2023-05-19T06:06:29;102678.14;;;15.67;60.49
69351;BME280;57106;51.446;-2.606;2023-05-19T06:08:52;102682.12;;;15.72;60.23
69351;BME280;57106;51.446;-2.606;2023-05-19T06:11:17;102687.15;;;15.87;59.42
69351;BME280;57106;51.446;-2.606;2023-05-19T06:13:43;102692.27;;;16.33;58.83
69351;BME280;57106;51.446;-2.606;2023-05-19T06:16:09;102698.11;;;16.26;58.51
69351;BME280;57106;51.446;-2.606;2023-05-19T06:18:34;102696.46;;;15.72;59.37
69351;BME280;57106;51.446;-2.606;2023-05-19T06:20:59;102700.24;;;15.88;59.70
69351;BME280;57106;51.446;-2.606;2023-05-19T06:23:25;102702.73;;;15.46;60.23
69351;BME280;57106;51.446;-2.606;2023-05-19T06:25:50;102695.85;;;15.51;60.21
69351;BME280;57106;51.446;-2.606;2023-05-19T06:28:16;102686.41;;;15.37;60.33
69351;BME280;57106;51.446;-2.606;2023-05-19T06:30:42;102674.77;;;15.61;59.82
69351;BME280;57106;51.446;-2.606;2023-05-19T06:33:07;102670.76;;;15.53;59.85
69351;BME280;57106;51.446;-2.606;2023-05-19T06:35:32;102677.65;;;15.20;60.37
69351;BME280;57106;51.446;-2.606;2023-05-19T06:37:58;102677.59;;;14.96;60.83
69351;BME280;57106;51.446;-2.606;2023-05-19T06:40:23;102676.18;;;14.88;60.71
69351;BME280;57106;51.446;-2.606;2023-05-19T06:42:49;102669.26;;;14.95;61.00
69351;BME280;57106;51.446;-2.606;2023-05-19T06:45:15;102676.22;;;15.17;60.50
69351;BME280;57106;51.446;-2.606;2023-05-19T06:47:40;102687.54;;;14.63;62.02
69351;BME280;57106;51.446;-2.606;2023-05-19T06:50:06;102690.52;;;14.96;61.13
69351;BME280;57106;51.446;-2.606;2023-05-19T06:52:31;102688.09;;;15.09;60.60
69351;BME280;57106;51.446;-2.606;2023-05-19T06:54:59;102689.06;;;15.17;60.50
69351;BME280;57106;51.446;-2.606;2023-05-19T06:57:22;102690.01;;;15.14;60.11
69351;BME280;57106;51.446;-2.606;2023-05-19T06:59:47;102693.85;;;15.66;59.30
69351;BME280;57106;51.446;-2.606;2023-05-19T07:02:13;102699.21;;;15.35;60.01
69351;BME280;57106;51.446;-2.606;2023-05-19T07:04:38;102696.93;;;15.19;60.40
69351;BME280;57106;51.446;-2.606;2023-05-19T07:07:04;102690.00;;;15.34;60.04
69351;BME280;57106;51.446;-2.606;2023-05-19T07:09:29;102698.93;;;15.35;59.68
69351;BME280;57106;51.446;-2.606;2023-05-19T07:11:55;102703.31;;;15.31;59.90
69351;BME280;57106;51.446;-2.606;2023-05-19T07:16:46;102704.97;;;15.64;59.25
69351;BME280;57106;51.446;-2.606;2023-05-19T07:24:02;102711.41;;;16.14;57.66
69351;BME280;57106;51.446;-2.606;2023-05-19T07:26:29;102708.39;;;16.04;58.23
69351;BME280;57106;51.446;-2.606;2023-05-19T07:28:54;102709.30;;;16.21;57.50
69351;BME280;57106;51.446;-2.606;2023-05-19T07:31:18;102713.56;;;15.98;57.70
69351;BME280;57106;51.446;-2.606;2023-05-19T07:36:10;102709.22;;;15.82;58.26
69351;BME280;57106;51.446;-2.606;2023-05-19T07:38:35;102706.98;;;15.95;58.27
69351;BME280;57106;51.446;-2.606;2023-05-19T07:41:01;102712.49;;;16.14;57.90
69351;BME280;57106;51.446;-2.606;2023-05-19T07:43:26;102719.94;;;16.26;56.00
69351;BME280;57106;51.446;-2.606;2023-05-19T07:45:51;102721.87;;;15.63;57.39
69351;BME280;57106;51.446;-2.606;2023-05-19T07:48:17;102713.77;;;15.83;57.38
69351;BME280;57106;51.446;-2.606;2023-05-19T07:50:42;102721.10;;;15.87;57.52
69351;BME280;57106;51.446;-2.606;2023-05-19T07:53:07;102723.40;;;15.77;57.45
69351;BME280;57106;51.446;-2.606;2023-05-19T07:55:33;102726.37;;;16.10;57.11
69351;BME280;57106;51.446;-2.606;2023-05-19T07:57:59;102729.43;;;16.24;56.38
69351;BME280;57106;51.446;-2.606;2023-05-19T08:00:25;102732.63;;;16.41;56.19
69351;BME280;57106;51.446;-2.606;2023-05-19T08:02:50;102724.81;;;16.21;56.40
69351;BME280;57106;51.446;-2.606;2023-05-19T08:05:15;102728.62;;;16.21;56.85
69351;BME280;57106;51.446;-2.606;2023-05-19T08:07:41;102719.81;;;16.66;56.14
69351;BME280;57106;51.446;-2.606;2023-05-19T08:10:07;102716.21;;;16.90;54.86
69351;BME280;57106;51.446;-2.606;2023-05-19T08:12:32;102724.81;;;17.06;54.60
69351;BME280;57106;51.446;-2.606;2023-05-19T08:14:57;102721.06;;;17.40;53.85
69351;BME280;57106;51.446;-2.606;2023-05-19T08:17:22;102724.21;;;17.50;52.81
69351;BME280;57106;51.446;-2.606;2023-05-19T08:19:49;102727.92;;;17.39;52.91
69351;BME280;57106;51.446;-2.606;2023-05-19T08:22:13;102723.49;;;17.17;53.15
69351;BME280;57106;51.446;-2.606;2023-05-19T08:24:39;102718.05;;;17.29;53.07
69351;BME280;57106;51.446;-2.606;2023-05-19T08:27:04;102718.90;;;17.15;53.44
69351;BME280;57106;51.446;-2.606;2023-05-19T08:29:30;102717.31;;;17.18;53.29
69351;BME280;57106;51.446;-2.606;2023-05-19T08:31:55;102718.61;;;16.99;53.80
69351;BME280;57106;51.446;-2.606;2023-05-19T08:34:22;102717.00;;;17.12;53.56
69351;BME280;57106;51.446;-2.606;2023-05-19T08:36:46;102717.02;;;17.03;53.68
69351;BME280;57106;51.446;-2.606;2023-05-19T08:39:11;102718.91;;;17.48;53.19
69351;BME280;57106;51.446;-2.606;2023-05-19T08:41:37;102712.08;;;17.35;51.79
69351;BME280;57106;51.446;-2.606;2023-05-19T08:44:02;102709.51;;;17.09;52.11
69351;BME280;57106;51.446;-2.606;2023-05-19T08:46:28;102704.50;;;17.43;51.42
69351;BME280;57106;51.446;-2.606;2023-05-19T08:48:57;102700.80;;;16.92;51.30
69351;BME280;57106;51.446;-2.606;2023-05-19T08:51:25;102699.99;;;17.05;51.34
69351;BME280;57106;51.446;-2.606;2023-05-19T08:53:48;102699.72;;;17.42;51.25
69351;BME280;57106;51.446;-2.606;2023-05-19T08:56:12;102692.88;;;17.34;51.92
69351;BME280;57106;51.446;-2.606;2023-05-19T08:58:35;102694.18;;;17.39;51.98
69351;BME280;57106;51.446;-2.606;2023-05-19T09:01:01;102699.02;;;17.09;53.07
69351;BME280;57106;51.446;-2.606;2023-05-19T09:03:26;102689.61;;;17.10;53.24
69351;BME280;57106;51.446;-2.606;2023-05-19T09:05:52;102689.24;;;17.30;53.37
69351;BME280;57106;51.446;-2.606;2023-05-19T09:08:16;102692.00;;;17.62;52.80
69351;BME280;57106;51.446;-2.606;2023-05-19T09:10:43;102691.40;;;17.72;52.25
69351;BME280;57106;51.446;-2.606;2023-05-19T09:13:12;102687.36;;;17.80;51.96
69351;BME280;57106;51.446;-2.606;2023-05-19T09:15:35;102690.97;;;17.86;52.12
69351;BME280;57106;51.446;-2.606;2023-05-19T09:18:06;102690.97;;;18.12;51.30
69351;BME280;57106;51.446;-2.606;2023-05-19T09:20:24;102686.52;;;18.03;51.06
69351;BME280;57106;51.446;-2.606;2023-05-19T09:22:49;102685.71;;;17.91;51.49
69351;BME280;57106;51.446;-2.606;2023-05-19T09:25:18;102685.18;;;17.89;51.79
69351;BME280;57106;51.446;-2.606;2023-05-19T09:27:40;102685.24;;;17.82;51.85
69351;BME280;57106;51.446;-2.606;2023-05-19T09:30:07;102680.75;;;17.69;52.55
69351;BME280;57106;51.446;-2.606;2023-05-19T09:32:31;102677.41;;;18.38;51.49
69351;BME280;57106;51.446;-2.606;2023-05-19T09:34:56;102683.08;;;17.78;52.40
69351;BME280;57106;51.446;-2.606;2023-05-19T09:37:22;102679.99;;;18.14;51.85
69351;BME280;57106;51.446;-2.606;2023-05-19T09:39:48;102683.59;;;18.48;50.93
69351;BME280;57106;51.446;-2.606;2023-05-19T09:42:13;102678.24;;;18.73;50.69
69351;BME280;57106;51.446;-2.606;2023-05-19T09:44:38;102671.48;;;18.58;51.16
69351;BME280;57106;51.446;-2.606;2023-05-19T09:47:03;102680.33;;;17.99;52.58
69351;BME280;57106;51.446;-2.606;2023-05-19T09:49:29;102672.40;;;18.28;52.18
69351;BME280;57106;51.446;-2.606;2023-05-19T09:51:55;102673.58;;;18.45;50.93
69351;BME280;57106;51.446;-2.606;2023-05-19T09:54:20;102668.81;;;18.52;51.32
69351;BME280;57106;51.446;-2.606;2023-05-19T09:56:45;102676.16;;;18.11;51.92
69351;BME280;57106;51.446;-2.606;2023-05-19T09:59:11;102664.47;;;17.94;52.83
69351;BME280;57106;51.446;-2.606;2023-05-19T10:01:36;102665.84;;;18.40;51.97
69351;BME280;57106;51.446;-2.606;2023-05-19T10:04:02;102663.06;;;18.50;51.93
69351;BME280;57106;51.446;-2.606;2023-05-19T10:06:26;102669.07;;;18.37;51.95
69351;BME280;57106;51.446;-2.606;2023-05-19T10:08:53;102667.96;;;18.30;51.89
69351;BME280;57106;51.446;-2.606;2023-05-19T10:11:18;102660.35;;;18.58;52.08
69351;BME280;57106;51.446;-2.606;2023-05-19T10:13:44;102654.38;;;18.55;51.34
69351;BME280;57106;51.446;-2.606;2023-05-19T10:16:09;102651.37;;;18.75;51.21
69351;BME280;57106;51.446;-2.606;2023-05-19T10:18:35;102652.42;;;18.73;51.28
69351;BME280;57106;51.446;-2.606;2023-05-19T10:21:01;102657.43;;;18.60;52.27
69351;BME280;57106;51.446;-2.606;2023-05-19T10:23:25;102653.56;;;18.71;51.59
69351;BME280;57106;51.446;-2.606;2023-05-19T10:25:52;102656.66;;;19.03;51.16
69351;BME280;57106;51.446;-2.606;2023-05-19T10:28:16;102656.01;;;19.38;51.32
69351;BME280;57106;51.446;-2.606;2023-05-19T10:30:46;102649.12;;;19.41;51.56
69351;BME280;57106;51.446;-2.606;2023-05-19T10:33:09;102641.27;;;19.65;50.38
69351;BME280;57106;51.446;-2.606;2023-05-19T10:35:48;102634.98;;;19.80;49.64
69351;BME280;57106;51.446;-2.606;2023-05-19T10:38:04;102629.35;;;19.73;50.63
69351;BME280;57106;51.446;-2.606;2023-05-19T10:40:26;102622.67;;;19.75;50.07
69351;BME280;57106;51.446;-2.606;2023-05-19T10:42:59;102629.45;;;19.99;49.80
69351;BME280;57106;51.446;-2.606;2023-05-19T10:47:39;102621.10;;;19.30;49.33
69351;BME280;57106;51.446;-2.606;2023-05-19T11:11:53;102612.18;;;19.69;49.30
69351;BME280;57106;51.446;-2.606;2023-05-19T11:23:59;102611.25;;;19.93;48.35
69351;BME280;57106;51.446;-2.606;2023-05-19T11:26:39;102611.32;;;20.03;48.49
69351;BME280;57106;51.446;-2.606;2023-05-19T11:28:50;102610.11;;;19.72;48.64
69351;BME280;57106;51.446;-2.606;2023-05-19T11:31:18;102608.66;;;19.92;48.18
69351;BME280;57106;51.446;-2.606;2023-05-19T11:33:41;102602.45;;;19.37;49.59
69351;BME280;57106;51.446;-2.606;2023-05-19T11:36:07;102601.98;;;19.32;49.61
69351;BME280;57106;51.446;-2.606;2023-05-19T11:38:33;102597.74;;;19.79;49.29
69351;BME280;57106;51.446;-2.606;2023-05-19T11:40:57;102591.56;;;19.99;48.39
69351;BME280;57106;51.446;-2.606;2023-05-19T11:43:23;102592.96;;;19.84;48.69
69351;BME280;57106;51.446;-2.606;2023-05-19T11:45:48;102598.68;;;19.50;49.51
69351;BME280;57106;51.446;-2.606;2023-05-19T11:48:14;102600.88;;;19.65;49.36
69351;BME280;57106;51.446;-2.606;2023-05-19T11:50:40;102594.79;;;20.27;48.35
69351;BME280;57106;51.446;-2.606;2023-05-19T11:55:30;102587.81;;;20.63;47.46
69351;BME280;57106;51.446;-2.606;2023-05-19T11:57:57;102589.50;;;20.34;48.44
69351;BME280;57106;51.446;-2.606;2023-05-19T12:00:21;102590.40;;;20.38;48.01
69351;BME280;57106;51.446;-2.606;2023-05-19T12:02:46;102588.93;;;20.45;47.26
69351;BME280;57106;51.446;-2.606;2023-05-19T12:05:18;102588.30;;;20.50;47.01
69351;BME280;57106;51.446;-2.606;2023-05-19T12:07:36;102592.94;;;20.75;45.99
69351;BME280;57106;51.446;-2.606;2023-05-19T12:10:02;102588.49;;;21.19;45.74
69351;BME280;57106;51.446;-2.606;2023-05-19T12:12:28;102591.90;;;20.75;47.13
69351;BME280;57106;51.446;-2.606;2023-05-19T12:14:53;102589.49;;;20.37;46.85
69351;BME280;57106;51.446;-2.606;2023-05-19T12:17:19;102584.79;;;20.23;46.39
69351;BME280;57106;51.446;-2.606;2023-05-19T12:19:44;102584.52;;;20.56;46.76
69351;BME280;57106;51.446;-2.606;2023-05-19T12:22:10;102594.60;;;20.34;46.34
69351;BME280;57106;51.446;-2.606;2023-05-19T12:24:36;102592.68;;;19.95;47.98
69351;BME280;57106;51.446;-2.606;2023-05-19T12:27:08;102594.56;;;19.93;48.15
69351;BME280;57106;51.446;-2.606;2023-05-19T12:29:27;102586.51;;;20.16;47.02
69351;BME280;57106;51.446;-2.606;2023-05-19T12:31:51;102588.99;;;20.34;47.75
69351;BME280;57106;51.446;-2.606;2023-05-19T12:34:16;102587.96;;;20.60;45.60
69351;BME280;57106;51.446;-2.606;2023-05-19T12:36:41;102583.02;;;20.99;45.42
69351;BME280;57106;51.446;-2.606;2023-05-19T12:39:07;102588.03;;;20.71;45.86
69351;BME280;57106;51.446;-2.606;2023-05-19T12:41:33;102589.14;;;20.82;46.19
69351;BME280;57106;51.446;-2.606;2023-05-19T12:43:58;102583.63;;;20.15;48.26
69351;BME280;57106;51.446;-2.606;2023-05-19T12:46:23;102586.83;;;19.97;49.34
69351;BME280;57106;51.446;-2.606;2023-05-19T12:48:48;102586.57;;;20.01;49.92
69351;BME280;57106;51.446;-2.606;2023-05-19T12:51:16;102585.43;;;19.71;51.13
69351;BME280;57106;51.446;-2.606;2023-05-19T12:53:40;102581.63;;;19.43;52.36
69351;BME280;57106;51.446;-2.606;2023-05-19T12:56:11;102585.87;;;19.21;52.43
69351;BME280;57106;51.446;-2.606;2023-05-19T12:58:32;102590.52;;;18.98;52.89
69351;BME280;57106;51.446;-2.606;2023-05-19T13:00:57;102587.83;;;19.11;53.20
69351;BME280;57106;51.446;-2.606;2023-05-19T13:03:21;102586.84;;;19.34;52.30
69351;BME280;57106;51.446;-2.606;2023-05-19T13:05:48;102586.31;;;19.53;51.45
69351;BME280;57106;51.446;-2.606;2023-05-19T13:08:14;102581.93;;;19.51;51.19
69351;BME280;57106;51.446;-2.606;2023-05-19T13:10:38;102590.09;;;19.58;51.31
69351;BME280;57106;51.446;-2.606;2023-05-19T13:13:04;102597.85;;;19.22;52.11
69351;BME280;57106;51.446;-2.606;2023-05-19T13:15:29;102594.39;;;19.18;52.94
69351;BME280;57106;51.446;-2.606;2023-05-19T13:17:54;102595.42;;;19.03;53.18
69351;BME280;57106;51.446;-2.606;2023-05-19T13:20:19;102598.58;;;19.00;53.12
69351;BME280;57106;51.446;-2.606;2023-05-19T13:22:45;102603.39;;;19.00;54.01
69351;BME280;57106;51.446;-2.606;2023-05-19T13:25:10;102609.73;;;18.62;57.21
69351;BME280;57106;51.446;-2.606;2023-05-19T13:27:35;102606.18;;;17.90;59.58
69351;BME280;57106;51.446;-2.606;2023-05-19T13:30:00;102610.64;;;18.09;60.80
69351;BME280;57106;51.446;-2.606;2023-05-19T13:32:27;102609.06;;;17.98;58.97
69351;BME280;57106;51.446;-2.606;2023-05-19T13:34:52;102598.71;;;18.08;56.45
69351;BME280;57106;51.446;-2.606;2023-05-19T13:37:18;102596.98;;;18.43;56.29
69351;BME280;57106;51.446;-2.606;2023-05-19T13:39:43;102597.44;;;18.36;55.85
69351;BME280;57106;51.446;-2.606;2023-05-19T13:42:09;102597.26;;;18.53;55.47
69351;BME280;57106;51.446;-2.606;2023-05-19T13:44:34;102592.79;;;18.92;54.55
69351;BME280;57106;51.446;-2.606;2023-05-19T13:46:59;102594.35;;;19.22;53.66
69351;BME280;57106;51.446;-2.606;2023-05-19T13:49:25;102596.56;;;18.85;54.08
69351;BME280;57106;51.446;-2.606;2023-05-19T13:51:52;102587.93;;;19.22;53.26
69351;BME280;57106;51.446;-2.606;2023-05-19T13:54:17;102585.48;;;19.06;53.27
69351;BME280;57106;51.446;-2.606;2023-05-19T13:56:41;102578.34;;;19.08;53.53
69351;BME280;57106;51.446;-2.606;2023-05-19T13:59:07;102573.84;;;19.20;53.47
69351;BME280;57106;51.446;-2.606;2023-05-19T14:01:32;102570.33;;;19.35;53.30
69351;BME280;57106;51.446;-2.606;2023-05-19T14:03:57;102560.04;;;19.49;52.58
69351;BME280;57106;51.446;-2.606;2023-05-19T14:06:22;102567.67;;;19.24;52.87
69351;BME280;57106;51.446;-2.606;2023-05-19T14:08:48;102557.94;;;19.61;51.43